Time;durP1;ratioP1;P1;durP2;ratioP2;P2;SDS_P1;SDS_P2;PMS_P1;PMS_P2;Temp;Humidity;BMP_temperature;BMP_pressure;BME280_temperature;BME280_humidity;BME280_pressure;Samples;Min_cycle;Max_cycle;Signal;HPM_P1;HPM_P2
2024/03/14 00:02:06;;;;;;;;;;;;;;;5.38;100.00;99669.16;4993594;28;19918;-90
2024/03/14 00:04:34;;;;;;;;;;;;;;;5.50;100.00;99666.22;4976396;28;20336;-89
2024/03/14 00:07:01;;;;;;;;;;;;;;;5.44;100.00;99666.34;4976190;28;19948;-89
2024/03/14 00:09:27;;;;;;;;;;;;;;;5.44;100.00;99672.50;4992451;28;19989;-88
2024/03/14 09:00:37;;;;;;;;;;;;;;;5.21;100.00;99523.28;4924981;28;20517;-85
2024/03/14 09:03:46;;;;;;;;;;;;;;;5.22;100.00;99524.16;4925217;29;19927;-91
2024/03/14 09:06:30;;;;;;;;;;;;;;;5.27;100.00;99522.28;4923996;29;19926;-90
2024/03/14 09:15:19;;;;;;;;;;;;;;;;;;;;;
2024/03/14 09:20:19;;;;;;;;;;;;;;;5.30;100.00;99530.09;4971858;28;19937;-89
2024/03/14 09:22:45;;;;;;;;;;;;;;;5.27;100.00;99532.78;4971319;28;19918;-89
2024/03/14 09:25:12;;;;;;;;;;;;;;;5.31;100.00;99525.69;4987997;28;19918;-86
2024/03/14 09:27:53;;;;;;;;;;;;;;;5.27;100.00;99530.16;4972781;28;19925;-91
2024/03/14 09:30:18;;;;;;;;;;;;;;;5.27;100.00;99532.78;4973108;28;20021;-87
2024/03/14 09:32:45;;;;;;;;;;;;;;;5.32;100.00;99535.31;4973045;28;20009;-82
2024/03/14 09:35:15;;;;;;;;;;;;;;;5.28;100.00;99530.13;4976924;28;19926;-91
2024/03/14 09:37:44;;;;;;;;;;;;;;;5.27;100.00;99538.03;4975657;28;19922;-92
2024/03/14 09:40:13;;;;;;;;;;;;;;;5.22;100.00;99538.16;4975680;28;19925;-91
2024/03/14 09:42:47;;;;;;;;;;;;;;;5.30;100.00;99537.09;4975011;28;20300;-92
2024/03/14 09:45:15;;;;;;;;;;;;;;;5.31;100.00;99533.56;4976947;28;20376;-90
2024/03/14 09:47:45;;;;;;;;;;;;;;;5.30;100.00;99535.34;4976868;28;19944;-92
2024/03/14 09:50:17;;;;;;;;;;;;;;;5.28;100.00;99540.63;4975593;28;20082;-92
2024/03/14 09:52:45;;;;;;;;;;;;;;;5.25;100.00;99535.44;4975565;28;19918;-92
2024/03/14 09:55:16;;;;;;;;;;;;;;;5.20;100.00;99529.47;4976611;28;19918;-90
2024/03/14 09:57:55;;;;;;;;;;;;;;;5.22;100.00;99540.78;4982652;28;19926;-92
2024/03/14 10:00:21;;;;;;;;;;;;;;;5.24;100.00;99538.13;4976456;28;19922;-90
2024/03/14 10:02:51;;;;;;;;;;;;;;;5.25;100.00;99530.19;4975746;28;19914;-91
2024/03/14 10:05:19;;;;;;;;;;;;;;;5.33;100.00;99531.75;4975252;28;19941;-93
2024/03/14 10:07:45;;;;;;;;;;;;;;;5.38;100.00;99541.25;4976494;28;19921;-92
2024/03/14 10:10:11;;;;;;;;;;;;;;;5.28;100.00;99531.88;4976415;28;19918;-92
2024/03/14 10:12:48;;;;;;;;;;;;;;;5.30;100.00;99530.09;4975607;28;20338;-93
2024/03/14 10:15:23;;;;;;;;;;;;;;;5.30;100.00;99526.56;4991049;28;19974;-92
2024/03/14 10:17:59;;;;;;;;;;;;;;;5.28;100.00;99522.25;4974467;28;19965;-92
2024/03/14 10:20:25;;;;;;;;;;;;;;;5.30;100.00;99521.31;4976217;28;19922;-87
2024/03/14 10:22:54;;;;;;;;;;;;;;;5.27;100.00;99520.50;4976308;28;19933;-91
2024/03/14 10:25:23;;;;;;;;;;;;;;;5.31;100.00;99518.66;4975570;28;20563;-91
2024/03/14 10:27:51;;;;;;;;;;;;;;;5.32;100.00;99522.16;4974304;28;19973;-91
2024/03/14 10:30:18;;;;;;;;;;;;;;;5.31;100.00;99516.03;4976119;28;19961;-91
2024/03/14 10:32:46;;;;;;;;;;;;;;;5.27;100.00;99512.63;4974878;28;19922;-89
2024/03/14 10:35:15;;;;;;;;;;;;;;;5.19;100.00;99511.97;4974210;28;19926;-91
2024/03/14 10:37:48;;;;;;;;;;;;;;;5.18;100.00;99506.75;4975538;28;19925;-92
2024/03/14 10:40:31;;;;;;;;;;;;;;;5.23;100.00;99500.50;4990431;28;19992;-92
2024/03/14 10:42:57;;;;;;;;;;;;;;;5.30;100.00;99495.03;4974247;28;19969;-91
2024/03/14 10:45:30;;;;;;;;;;;;;;;5.23;100.00;99495.22;4975804;28;20344;-92
2024/03/14 10:47:57;;;;;;;;;;;;;;;5.23;100.00;99497.84;4974720;28;19925;-91
2024/03/14 10:50:30;;;;;;;;;;;;;;;5.27;100.00;99486.34;4974538;28;19969;-90
2024/03/14 10:53:00;;;;;;;;;;;;;;;5.32;100.00;99477.50;4974578;28;19969;-90
2024/03/14 10:58:36;;;;;;;;;;;;;;;5.29;100.00;99473.19;4974445;28;19976;-90
2024/03/14 11:01:04;;;;;;;;;;;;;;;5.28;100.00;99463.56;4973757;28;20292;-91
2024/03/14 11:03:34;;;;;;;;;;;;;;;5.26;100.00;99471.50;4953730;29;19918;-91
2024/03/14 11:06:01;;;;;;;;;;;;;;;5.24;100.00;99469.81;4953786;29;19918;-91
2024/03/14 11:08:36;;;;;;;;;;;;;;;5.26;100.00;99468.00;4938006;29;19922;-92
2024/03/14 11:11:03;;;;;;;;;;;;;;;5.21;100.00;99469.91;4937380;29;19918;-85
2024/03/14 11:13:42;;;;;;;;;;;;;;;5.21;100.00;99454.97;4935651;29;21191;-89
2024/03/14 11:16:08;;;;;;;;;;;;;;;5.19;100.00;99456.81;4929434;29;19918;-89
2024/03/14 11:18:37;;;;;;;;;;;;;;;5.31;100.00;99452.97;4953417;29;19932;-89
2024/03/14 11:21:03;;;;;;;;;;;;;;;5.34;100.00;99449.41;4937086;29;20254;-91
2024/03/14 11:23:30;;;;;;;;;;;;;;;5.25;100.00;99448.75;4953512;29;20593;-90
2024/03/14 11:25:58;;;;;;;;;;;;;;;5.25;100.00;99446.13;4953688;29;19923;-91
2024/03/14 11:28:44;;;;;;;;;;;;;;;5.31;100.00;99447.72;4966066;28;19918;-92
2024/03/14 11:31:11;;;;;;;;;;;;;;;5.34;100.00;99438.91;4989909;28;19919;-92
2024/03/14 11:34:08;;;;;;;;;;;;;;;5.40;100.00;99434.34;4975088;28;19988;-92
2024/03/14 11:36:34;;;;;;;;;;;;;;;5.36;100.00;99434.47;4965381;28;20012;-89
2024/03/14 11:39:13;;;;;;;;;;;;;;;5.23;100.00;99433.94;4974899;28;20293;-91
2024/03/14 11:41:43;;;;;;;;;;;;;;;5.29;100.00;99425.88;4989361;28;19922;-91
2024/03/14 11:44:14;;;;;;;;;;;;;;;5.41;100.00;99435.22;4988130;28;20402;-91
2024/03/14 11:46:39;;;;;;;;;;;;;;;5.33;100.00;99430.16;4974695;28;20271;-91
2024/03/14 11:49:15;;;;;;;;;;;;;;;5.34;100.00;99423.13;4974663;28;19925;-89
2024/03/14 11:51:41;;;;;;;;;;;;;;;5.36;100.00;99418.69;4981510;28;19926;-90
2024/03/14 11:54:10;;;;;;;;;;;;;;;5.32;100.00;99415.28;4973156;28;20012;-91
2024/03/14 11:56:39;;;;;;;;;;;;;;;5.31;100.00;99410.09;4972723;28;19924;-90
2024/03/14 11:59:08;;;;;;;;;;;;;;;5.34;100.00;99404.75;4973149;28;19918;-92
2024/03/14 12:01:37;;;;;;;;;;;;;;;5.23;100.00;99395.41;4974498;28;19922;-87
2024/03/14 12:04:02;;;;;;;;;;;;;;;5.30;100.00;99384.72;4973025;28;19914;-92
2024/03/14 12:06:28;;;;;;;;;;;;;;;5.32;100.00;99380.28;4974318;28;19922;-90
2024/03/14 12:08:53;;;;;;;;;;;;;;;5.31;100.00;99378.56;4974270;28;20005;-91
2024/03/14 12:11:20;;;;;;;;;;;;;;;5.30;100.00;99375.09;4972837;28;20001;-84
2024/03/14 12:13:52;;;;;;;;;;;;;;;5.36;100.00;99374.91;4973065;28;19925;-92
2024/03/14 12:16:24;;;;;;;;;;;;;;;5.33;100.00;99366.22;4972158;28;19921;-91
2024/03/14 12:18:51;;;;;;;;;;;;;;;5.39;100.00;99366.06;4981356;28;19933;-90
2024/03/14 12:21:16;;;;;;;;;;;;;;;5.32;100.00;99354.03;4992709;28;19917;-88
2024/03/14 12:23:52;;;;;;;;;;;;;;;5.33;100.00;99342.59;4993434;28;19969;-87
2024/03/14 12:26:18;;;;;;;;;;;;;;;5.30;100.00;99346.19;4975297;28;20329;-91
2024/03/14 12:28:48;;;;;;;;;;;;;;;5.22;100.00;99341.13;4991844;28;19988;-92
2024/03/14 12:31:13;;;;;;;;;;;;;;;5.27;100.00;99339.25;4993385;28;19976;-88
2024/03/14 12:33:41;;;;;;;;;;;;;;;5.33;100.00;99347.84;4993116;28;20391;-87
2024/03/14 12:36:09;;;;;;;;;;;;;;;5.31;100.00;99339.16;4993293;28;19973;-90
2024/03/14 12:38:35;;;;;;;;;;;;;;;5.29;100.00;99331.31;4975569;28;19918;-90
2024/03/14 12:41:01;;;;;;;;;;;;;;;5.32;100.00;99328.59;4975831;28;20008;-90
2024/03/14 12:43:27;;;;;;;;;;;;;;;5.37;100.00;99315.34;4992054;28;20009;-90
2024/03/14 12:45:53;;;;;;;;;;;;;;;5.37;100.00;99317.97;4993114;28;20344;-90
2024/03/14 12:48:19;;;;;;;;;;;;;;;5.30;100.00;99306.78;4992089;28;19918;-90
2024/03/14 12:50:45;;;;;;;;;;;;;;;5.31;100.00;99305.84;4993002;28;19925;-85
2024/03/14 12:53:15;;;;;;;;;;;;;;;5.31;100.00;99297.97;4993599;28;20418;-90
2024/03/14 12:55:43;;;;;;;;;;;;;;;5.28;100.00;99295.44;4993732;28;19917;-90
2024/03/14 12:58:20;;;;;;;;;;;;;;;5.34;100.00;99291.78;4990626;28;20008;-90
2024/03/14 13:00:47;;;;;;;;;;;;;;;5.33;100.00;99282.16;4975120;28;19925;-90
2024/03/14 13:03:21;;;;;;;;;;;;;;;5.39;100.00;99281.97;4993078;28;19917;-91
2024/03/14 13:05:48;;;;;;;;;;;;;;;5.34;100.00;99274.22;4992757;28;19917;-90
2024/03/14 13:08:14;;;;;;;;;;;;;;;5.30;100.00;99280.50;4975384;28;20008;-91
2024/03/14 13:10:41;;;;;;;;;;;;;;;5.42;100.00;99266.97;4992713;28;20399;-86
2024/03/14 13:13:11;;;;;;;;;;;;;;;5.37;100.00;99265.41;4991419;28;19925;-91
2024/03/14 13:15:36;;;;;;;;;;;;;;;5.35;100.00;99260.19;4992711;28;19928;-90
2024/03/14 13:19:00;;;;;;;;;;;;;;;6.00;100.00;99255.59;4992672;28;19917;-95
2024/03/14 13:21:25;;;;;;;;;;;;;;;5.64;100.00;99258.44;4904189;28;20003;-94
2024/03/14 13:23:51;;;;;;;;;;;;;;;5.54;100.00;99250.00;4991733;28;20069;-90
2024/03/14 13:29:35;;;;;;;;;;;;;;;;;;;;;
2024/03/14 13:32:23;;;;;;;;;;;;;;;;;;;;;
2024/03/14 13:35:40;;;;;;;;;;;;;;;5.48;100.00;99237.03;4964465;28;19922;-94
2024/03/14 13:37:46;;;;;;;;;;;;;;;5.46;100.00;99228.34;4984405;28;19918;-92
2024/03/14 13:40:11;;;;;;;;;;;;;;;5.52;100.00;99232.53;4975028;28;20328;-93
2024/03/14 13:42:51;;;;;;;;;;;;;;;5.51;100.00;99226.44;4975159;28;19918;-94
2024/03/14 13:45:19;;;;;;;;;;;;;;;5.50;100.00;99227.34;4992635;28;19918;-88
2024/03/14 13:47:47;;;;;;;;;;;;;;;5.58;100.00;99225.31;4991842;28;19977;-91
2024/03/14 13:50:34;;;;;;;;;;;;;;;5.43;100.00;99217.94;4974658;28;19945;-94
2024/03/14 13:53:00;;;;;;;;;;;;;;;5.41;100.00;99214.50;4967161;28;20340;-91
2024/03/14 13:55:36;;;;;;;;;;;;;;;5.43;100.00;99208.28;4992467;28;19917;-91
2024/03/14 13:58:06;;;;;;;;;;;;;;;5.49;100.00;99209.88;4990905;28;19921;-89
2024/03/14 14:03:39;;;;;;;;;;;;;;;5.43;100.00;99205.66;4959371;28;19922;-91
2024/03/14 14:06:17;;;;;;;;;;;;;;;;;;;;;
2024/03/14 14:08:42;;;;;;;;;;;;;;;5.52;100.00;99207.16;4992382;28;19924;-90
2024/03/14 14:11:07;;;;;;;;;;;;;;;5.51;100.00;99205.41;4992316;28;20016;-91
2024/03/14 14:13:33;;;;;;;;;;;;;;;5.41;100.00;99196.13;4990940;28;20284;-87
2024/03/14 14:15:58;;;;;;;;;;;;;;;5.45;100.00;99197.72;4992092;28;19918;-91
2024/03/14 14:18:24;;;;;;;;;;;;;;;5.51;100.00;99194.91;4993243;28;19921;-91
2024/03/14 14:20:49;;;;;;;;;;;;;;;5.52;100.00;99191.38;4978144;28;19917;-88
2024/03/14 14:23:15;;;;;;;;;;;;;;;5.58;100.00;99188.53;4994781;28;19921;-85
2024/03/14 14:25:41;;;;;;;;;;;;;;;5.54;100.00;99188.69;4995581;28;19928;-92
2024/03/14 14:28:11;;;;;;;;;;;;;;;5.53;100.00;99190.44;4977105;28;20340;-93
2024/03/14 14:30:41;;;;;;;;;;;;;;;5.52;100.00;99182.63;4977153;28;19918;-92
2024/03/14 14:33:06;;;;;;;;;;;;;;;5.58;100.00;99180.66;4994754;28;20294;-89
2024/03/14 14:35:45;;;;;;;;;;;;;;;;;;;;;
2024/03/14 14:38:32;;;;;;;;;;;;;;;5.63;100.00;99178.75;4995259;28;19922;-94
2024/03/14 14:40:59;;;;;;;;;;;;;;;5.67;100.00;99173.41;4994002;28;19981;-91
2024/03/14 14:43:26;;;;;;;;;;;;;;;5.63;100.00;99184.00;4992899;28;19924;-93
2024/03/14 14:46:14;;;;;;;;;;;;;;;5.69;100.00;99182.94;4953904;29;20533;-93
2024/03/14 14:48:48;;;;;;;;;;;;;;;5.69;100.00;99174.19;4954227;29;19944;-91
2024/03/14 14:51:31;;;;;;;;;;;;;;;5.64;100.00;99177.81;4953947;29;20425;-93
2024/03/14 14:54:08;;;;;;;;;;;;;;;5.63;100.00;99173.50;4937972;29;19982;-92
2024/03/14 14:56:33;;;;;;;;;;;;;;;5.56;100.00;99161.44;4953838;29;20005;-87
2024/03/14 14:59:28;;;;;;;;;;;;;;;5.50;100.00;99160.78;4952939;29;20013;-92
2024/03/14 15:01:49;;;;;;;;;;;;;;;5.53;100.00;99156.28;4952734;29;19974;-91
2024/03/14 15:04:17;;;;;;;;;;;;;;;5.50;100.00;99151.13;4954020;29;19972;-87
2024/03/14 15:06:42;;;;;;;;;;;;;;;5.55;100.00;99149.22;4953845;29;19938;-87
2024/03/14 15:09:09;;;;;;;;;;;;;;;5.52;100.00;99143.19;4953962;29;20366;-90
2024/03/14 15:11:34;;;;;;;;;;;;;;;5.59;100.00;99140.31;4976230;28;19928;-89
2024/03/14 15:14:10;;;;;;;;;;;;;;;5.55;100.00;99137.84;4993729;28;19918;-94
2024/03/14 15:16:36;;;;;;;;;;;;;;;5.54;100.00;99134.38;4994628;28;19929;-87
2024/03/14 15:19:03;;;;;;;;;;;;;;;5.60;100.00;99123.66;4994631;28;19926;-92
2024/03/14 15:21:28;;;;;;;;;;;;;;;5.57;100.00;99125.53;4994617;28;20017;-88
2024/03/14 15:23:53;;;;;;;;;;;;;;;5.51;100.00;99120.47;4994506;28;20378;-87
2024/03/14 15:26:19;;;;;;;;;;;;;;;5.53;100.00;99118.66;4994679;28;19957;-91
2024/03/14 15:28:49;;;;;;;;;;;;;;;5.51;100.00;99121.31;4993073;28;19924;-92
2024/03/14 15:31:18;;;;;;;;;;;;;;;5.51;100.00;99117.84;4991817;28;19918;-92
2024/03/14 15:33:46;;;;;;;;;;;;;;;5.58;100.00;99117.56;4993874;28;19973;-92
2024/03/14 15:36:12;;;;;;;;;;;;;;;5.51;100.00;99110.81;4993680;28;19922;-93
2024/03/14 15:38:42;;;;;;;;;;;;;;;5.45;100.00;99105.75;4976686;28;19960;-92
2024/03/14 15:41:11;;;;;;;;;;;;;;;5.46;100.00;99103.06;4976654;28;19918;-92
2024/03/14 15:43:37;;;;;;;;;;;;;;;5.56;100.00;99101.00;4992896;28;20440;-89
2024/03/14 15:46:02;;;;;;;;;;;;;;;6.39;100.00;99099.06;4994445;28;20416;-88
2024/03/14 15:48:30;;;;;;;;;;;;;;;5.98;100.00;99103.13;4994165;28;19918;-87
2024/03/14 15:50:58;;;;;;;;;;;;;;;5.78;100.00;99092.41;4994440;28;20254;-91
2024/03/14 15:53:26;;;;;;;;;;;;;;;5.80;100.00;99093.19;4976057;28;19922;-90
2024/03/14 15:55:52;;;;;;;;;;;;;;;5.83;100.00;99093.94;4994166;28;19921;-91
2024/03/14 15:58:18;;;;;;;;;;;;;;;5.79;100.00;99096.72;4992511;28;20278;-91
2024/03/14 16:00:44;;;;;;;;;;;;;;;5.78;100.00;99095.88;4993989;28;19922;-90
2024/03/14 16:03:10;;;;;;;;;;;;;;;5.80;100.00;99095.81;4993766;28;19917;-87
2024/03/14 16:05:35;;;;;;;;;;;;;;;5.77;100.00;99085.41;4993789;28;19921;-92
2024/03/14 16:08:04;;;;;;;;;;;;;;;5.79;100.00;99087.09;4993556;28;19968;-92
2024/03/14 16:10:30;;;;;;;;;;;;;;;5.78;100.00;99089.78;4976485;28;20101;-90
2024/03/14 16:12:55;;;;;;;;;;;;;;;5.77;100.00;99085.41;4974804;28;19922;-81
2024/03/14 16:15:21;;;;;;;;;;;;;;;5.76;100.00;99081.06;4993680;28;20407;-92
2024/03/14 16:17:49;;;;;;;;;;;;;;;5.83;100.00;99082.56;4993740;28;19928;-91
2024/03/14 16:23:25;;;;;;;;;;;;;;;5.82;100.00;99072.97;4922649;29;19919;-91
2024/03/14 16:25:51;;;;;;;;;;;;;;;5.78;100.00;99076.63;4923707;29;20425;-90
2024/03/14 16:28:16;;;;;;;;;;;;;;;5.83;100.00;99069.44;4937004;28;19925;-90
2024/03/14 16:30:42;;;;;;;;;;;;;;;5.80;100.00;99074.78;4975079;28;19922;-82
2024/03/14 16:33:11;;;;;;;;;;;;;;;5.79;100.00;99073.06;4993020;28;19932;-89
2024/03/14 16:35:38;;;;;;;;;;;;;;;5.79;100.00;99079.22;4975117;28;19965;-88
2024/03/14 16:38:05;;;;;;;;;;;;;;;5.76;100.00;99074.06;4993606;28;20250;-91
2024/03/14 16:40:31;;;;;;;;;;;;;;;5.80;100.00;99069.53;4992477;28;19930;-86
2024/03/14 16:43:02;;;;;;;;;;;;;;;5.76;100.00;99068.78;4991748;28;19928;-92
2024/03/14 16:45:31;;;;;;;;;;;;;;;5.80;100.00;99074.78;4992220;28;19925;-92
2024/03/14 16:47:58;;;;;;;;;;;;;;;5.75;100.00;99072.31;4983686;28;20373;-86
2024/03/14 16:50:41;;;;;;;;;;;;;;;5.79;100.00;99073.06;4992523;28;19984;-91
2024/03/14 16:53:10;;;;;;;;;;;;;;;5.78;100.00;99079.25;4974712;28;19944;-91
2024/03/14 16:55:40;;;;;;;;;;;;;;;5.73;100.00;99083.81;4974600;28;19957;-91
2024/03/14 16:58:08;;;;;;;;;;;;;;;5.81;100.00;99076.53;4973618;28;19945;-90
2024/03/14 17:00:34;;;;;;;;;;;;;;;5.83;100.00;99083.44;4974341;28;20428;-89
2024/03/14 17:03:02;;;;;;;;;;;;;;;5.82;100.00;99083.47;4992417;28;20028;-88
2024/03/14 17:05:32;;;;;;;;;;;;;;;5.78;100.00;99082.75;4992103;28;19921;-90
2024/03/14 17:07:59;;;;;;;;;;;;;;;5.74;100.00;99086.38;4973878;28;19932;-92
2024/03/14 17:10:27;;;;;;;;;;;;;;;5.78;100.00;99087.16;4992529;28;20000;-91
2024/03/14 17:12:57;;;;;;;;;;;;;;;5.85;100.00;99091.25;4973341;28;19949;-91
2024/03/14 17:15:22;;;;;;;;;;;;;;;5.74;100.00;99089.00;4975068;28;19925;-90
2024/03/14 17:17:50;;;;;;;;;;;;;;;5.64;100.00;99096.34;4975177;28;19918;-90
2024/03/14 17:20:18;;;;;;;;;;;;;;;5.64;100.00;99101.59;4971809;28;19929;-91
2024/03/14 17:22:53;;;;;;;;;;;;;;;5.59;100.00;99098.28;4971878;28;19922;-91
2024/03/14 17:25:19;;;;;;;;;;;;;;;5.56;100.00;99098.38;4971178;28;19922;-91
2024/03/14 17:27:44;;;;;;;;;;;;;;;5.63;100.00;99102.53;4970817;28;19925;-90
2024/03/14 17:30:10;;;;;;;;;;;;;;;5.56;100.00;99101.00;4971388;28;19926;-88
2024/03/14 17:32:45;;;;;;;;;;;;;;;5.59;100.00;99108.78;4972109;28;20405;-91
2024/03/14 17:35:12;;;;;;;;;;;;;;;5.58;100.00;99104.44;4956220;28;19945;-88
2024/03/14 17:37:42;;;;;;;;;;;;;;;5.66;100.00;99104.16;4972778;28;20362;-90
2024/03/14 17:40:12;;;;;;;;;;;;;;;5.61;100.00;99103.47;4971313;28;19925;-86
2024/03/14 17:42:38;;;;;;;;;;;;;;;5.53;100.00;99105.50;4971748;28;19918;-88
2024/03/14 17:45:09;;;;;;;;;;;;;;;5.55;100.00;99095.78;4970480;28;20452;-90
2024/03/14 17:47:34;;;;;;;;;;;;;;;5.59;100.00;99103.53;4971532;28;20374;-89
2024/03/14 17:50:00;;;;;;;;;;;;;;;5.68;100.00;99101.50;4971732;28;19924;-90
2024/03/14 17:52:25;;;;;;;;;;;;;;;5.62;100.00;99105.22;4971944;28;20010;-91
2024/03/14 17:54:53;;;;;;;;;;;;;;;5.61;100.00;99108.72;4974516;28;19932;-90
2024/03/14 17:57:19;;;;;;;;;;;;;;;5.57;100.00;99107.97;4976531;28;19976;-87
2024/03/14 17:59:53;;;;;;;;;;;;;;;5.62;100.00;99108.69;4975800;28;19922;-93
2024/03/14 18:02:19;;;;;;;;;;;;;;;5.70;100.00;99107.59;4976856;28;19918;-90
2024/03/14 18:04:45;;;;;;;;;;;;;;;5.64;100.00;99101.59;4976854;28;19944;-88
2024/03/14 18:07:11;;;;;;;;;;;;;;;5.68;100.00;99110.25;4974938;28;20342;-88
2024/03/14 18:09:36;;;;;;;;;;;;;;;5.64;100.00;99111.25;4974502;28;20001;-91
2024/03/14 18:12:06;;;;;;;;;;;;;;;5.75;100.00;99105.66;4977037;28;20309;-90
2024/03/14 18:14:34;;;;;;;;;;;;;;;5.71;100.00;99111.91;4973422;28;20008;-90
2024/03/14 18:17:00;;;;;;;;;;;;;;;5.66;100.00;99112.06;4975647;28;20354;-91
2024/03/14 18:19:35;;;;;;;;;;;;;;;5.66;100.00;99112.06;4974906;28;19926;-90
2024/03/14 18:22:08;;;;;;;;;;;;;;;5.71;100.00;99114.53;4976031;28;19922;-89
2024/03/14 18:24:37;;;;;;;;;;;;;;;5.68;100.00;99117.28;4954562;29;19970;-88
2024/03/14 18:27:05;;;;;;;;;;;;;;;5.66;100.00;99114.69;4954344;29;20022;-87
2024/03/14 18:29:31;;;;;;;;;;;;;;;5.68;100.00;99122.53;4953070;29;20397;-87
2024/03/14 18:31:56;;;;;;;;;;;;;;;5.66;100.00;99119.09;4954686;29;19961;-88
2024/03/14 18:34:24;;;;;;;;;;;;;;;5.66;100.00;99121.72;4954622;29;19923;-90
2024/03/14 18:36:50;;;;;;;;;;;;;;;5.67;100.00;99120.81;4954246;29;20346;-87
2024/03/14 18:39:18;;;;;;;;;;;;;;;5.62;100.00;99121.81;4954283;29;19954;-88
2024/03/14 18:41:43;;;;;;;;;;;;;;;5.60;100.00;99121.03;4947278;29;19919;-87
2024/03/14 18:44:11;;;;;;;;;;;;;;;5.62;100.00;99121.81;4953044;29;20392;-85
2024/03/14 18:46:36;;;;;;;;;;;;;;;5.58;100.00;99122.81;4938099;29;20429;-83
2024/03/14 18:49:01;;;;;;;;;;;;;;;5.59;100.00;99114.03;4963533;28;19929;-87
2024/03/14 18:51:27;;;;;;;;;;;;;;;5.62;100.00;99113.94;4974485;28;20501;-86
2024/03/14 18:53:53;;;;;;;;;;;;;;;5.63;100.00;99114.78;4975662;28;19929;-90
2024/03/14 18:56:18;;;;;;;;;;;;;;;5.56;100.00;99111.50;4974361;28;19922;-86
2024/03/14 18:58:44;;;;;;;;;;;;;;;5.55;100.00;99112.44;4971769;28;20309;-87
2024/03/14 19:01:11;;;;;;;;;;;;;;;5.58;100.00;99111.47;4975121;28;19926;-87
2024/03/14 19:03:37;;;;;;;;;;;;;;;5.54;100.00;99115.97;4972114;28;19922;-86
2024/03/14 19:06:04;;;;;;;;;;;;;;;5.63;100.00;99115.66;4974981;28;19961;-89
2024/03/14 19:08:30;;;;;;;;;;;;;;;5.63;100.00;99120.03;4974158;28;19926;-86
2024/03/14 19:11:03;;;;;;;;;;;;;;;5.61;100.00;99114.84;4974904;28;19922;-94
2024/03/14 19:13:28;;;;;;;;;;;;;;;5.57;100.00;99121.13;4968627;28;19995;-85
2024/03/14 19:15:54;;;;;;;;;;;;;;;5.61;100.00;99116.63;4975231;28;20400;-87
2024/03/14 19:18:22;;;;;;;;;;;;;;;5.64;100.00;99122.63;4973509;28;20300;-89
2024/03/14 19:20:49;;;;;;;;;;;;;;;5.60;100.00;99121.03;4974948;28;19926;-86
2024/03/14 19:23:15;;;;;;;;;;;;;;;5.56;100.00;99124.66;4973057;28;20385;-90
2024/03/14 19:25:43;;;;;;;;;;;;;;;5.61;100.00;99121.88;4973904;28;19922;-90
2024/03/14 19:28:09;;;;;;;;;;;;;;;5.51;100.00;99129.22;4972822;28;19972;-86
2024/03/14 19:30:34;;;;;;;;;;;;;;;5.61;100.00;99122.72;4973719;28;19926;-90
2024/03/14 19:32:59;;;;;;;;;;;;;;;5.52;100.00;99132.69;4973164;28;20397;-90
2024/03/14 19:35:27;;;;;;;;;;;;;;;5.46;100.00;99120.63;4973217;28;19923;-93
2024/03/14 19:37:52;;;;;;;;;;;;;;;5.48;100.00;99121.41;4973170;28;19918;-86
2024/03/14 19:40:18;;;;;;;;;;;;;;;5.46;100.00;99125.88;4974982;28;20289;-89
2024/03/14 19:42:43;;;;;;;;;;;;;;;5.50;100.00;99124.84;4972770;28;19961;-88
2024/03/14 19:45:09;;;;;;;;;;;;;;;5.51;100.00;99120.47;4972632;28;19929;-91
2024/03/14 19:47:35;;;;;;;;;;;;;;;5.58;100.00;99117.56;4973169;28;19977;-88
2024/03/14 19:50:00;;;;;;;;;;;;;;;5.64;100.00;99116.53;4974881;28;19918;-89
2024/03/14 19:52:26;;;;;;;;;;;;;;;5.59;100.00;99114.03;4973499;28;20033;-84
2024/03/14 19:54:51;;;;;;;;;;;;;;;5.66;100.00;99113.84;4974359;28;20008;-87
2024/03/14 19:57:16;;;;;;;;;;;;;;;5.70;100.00;99118.09;4973003;28;19948;-88
2024/03/14 19:59:41;;;;;;;;;;;;;;;5.63;100.00;99115.66;4973473;28;19922;-89
2024/03/14 20:02:08;;;;;;;;;;;;;;;5.74;100.00;99120.53;4972670;28;19922;-86
2024/03/14 20:04:34;;;;;;;;;;;;;;;5.71;100.00;99117.16;4974565;28;19922;-89
2024/03/14 20:06:59;;;;;;;;;;;;;;;5.66;100.00;99111.22;4972353;28;20266;-89
2024/03/14 20:09:25;;;;;;;;;;;;;;;5.68;100.00;99112.00;4972650;28;19922;-90
2024/03/14 20:11:51;;;;;;;;;;;;;;;5.68;100.00;99112.00;4972857;28;20373;-89
2024/03/14 20:14:16;;;;;;;;;;;;;;;5.63;100.00;99110.41;4971569;28;19926;-91
2024/03/14 20:16:43;;;;;;;;;;;;;;;5.69;100.00;99111.13;4972485;28;19968;-89
2024/03/14 20:19:11;;;;;;;;;;;;;;;5.60;100.00;99110.50;4972790;28;19976;-91
2024/03/14 20:21:36;;;;;;;;;;;;;;;5.60;100.00;99109.63;4973132;28;19922;-87
2024/03/14 20:24:02;;;;;;;;;;;;;;;5.57;100.00;99107.97;4973701;28;19929;-85
2024/03/14 20:26:27;;;;;;;;;;;;;;;5.63;100.00;99113.03;4972244;28;19922;-91
2024/03/14 20:29:13;;;;;;;;;;;;;;;5.62;100.00;99103.44;4973126;28;19918;-91
2024/03/14 20:31:38;;;;;;;;;;;;;;;5.63;100.00;99110.41;4972149;28;20321;-90
2024/03/14 20:34:07;;;;;;;;;;;;;;;5.58;100.00;99107.06;4974109;28;19929;-89
2024/03/14 20:36:32;;;;;;;;;;;;;;;5.60;100.00;99110.50;4973921;28;19976;-87
2024/03/14 20:38:58;;;;;;;;;;;;;;;5.53;100.00;99103.72;4971941;28;19926;-86
2024/03/14 20:41:23;;;;;;;;;;;;;;;5.60;100.00;99107.88;4971897;28;19929;-88
2024/03/14 20:43:54;;;;;;;;;;;;;;;5.68;100.00;99106.75;4972289;28;19918;-91
2024/03/14 20:46:22;;;;;;;;;;;;;;;5.63;100.00;99105.16;4973397;28;19926;-90
2024/03/14 20:48:47;;;;;;;;;;;;;;;5.57;100.00;99102.72;4973750;28;19969;-91
2024/03/14 20:51:14;;;;;;;;;;;;;;;5.58;100.00;99112.31;4972423;28;19918;-90
2024/03/14 20:53:42;;;;;;;;;;;;;;;5.56;100.00;99119.41;4973190;28;20001;-90
2024/03/14 20:56:14;;;;;;;;;;;;;;;5.56;100.00;99110.66;4971568;28;19926;-91
2024/03/14 20:58:40;;;;;;;;;;;;;;;5.60;100.00;99110.50;4986775;28;20369;-89
2024/03/14 21:01:05;;;;;;;;;;;;;;;5.57;100.00;99107.13;4973056;28;19961;-88
2024/03/14 21:03:34;;;;;;;;;;;;;;;5.57;100.00;99105.34;4972181;28;19961;-89
2024/03/14 21:06:07;;;;;;;;;;;;;;;5.53;100.00;99108.97;4972326;28;19925;-91
2024/03/14 21:08:33;;;;;;;;;;;;;;;5.58;100.00;99114.94;4971078;28;20013;-89
2024/03/14 21:11:02;;;;;;;;;;;;;;;5.59;100.00;99124.56;4973452;28;20012;-92
2024/03/14 21:13:28;;;;;;;;;;;;;;;5.58;100.00;99121.97;4971969;28;19918;-91
2024/03/14 21:16:05;;;;;;;;;;;;;;;5.60;100.00;99115.78;4972981;28;19918;-92
2024/03/14 21:18:30;;;;;;;;;;;;;;;5.58;100.00;99116.72;4972095;28;20362;-92
2024/03/14 21:21:04;;;;;;;;;;;;;;;5.58;100.00;99117.56;4972252;28;19929;-92
2024/03/14 21:23:29;;;;;;;;;;;;;;;5.62;100.00;99124.44;4971360;28;19965;-90
2024/03/14 21:25:54;;;;;;;;;;;;;;;5.69;100.00;99124.25;4972160;28;19949;-90
2024/03/14 21:28:20;;;;;;;;;;;;;;;5.59;100.00;99114.03;4970573;28;19944;-89
2024/03/14 21:30:45;;;;;;;;;;;;;;;5.61;100.00;99122.72;4972090;28;19918;-90
2024/03/14 21:33:13;;;;;;;;;;;;;;;5.65;100.00;99120.88;4973315;28;19926;-92
2024/03/14 21:35:40;;;;;;;;;;;;;;;5.62;100.00;99119.19;4971223;28;19981;-90
2024/03/14 21:38:05;;;;;;;;;;;;;;;5.61;100.00;99117.47;4973004;28;19957;-84
2024/03/14 21:40:31;;;;;;;;;;;;;;;5.61;100.00;99120.09;4971196;28;20449;-88
2024/03/14 21:42:56;;;;;;;;;;;;;;;5.62;100.00;99119.19;4971091;28;19957;-86
2024/03/14 21:45:23;;;;;;;;;;;;;;;5.71;100.00;99118.03;4973172;28;19941;-91
2024/03/14 21:47:49;;;;;;;;;;;;;;;5.61;100.00;99114.00;4972024;28;20285;-92
2024/03/14 21:50:16;;;;;;;;;;;;;;;5.55;100.00;99122.94;4972893;28;20008;-88
2024/03/14 21:52:41;;;;;;;;;;;;;;;5.61;100.00;99120.09;4973097;28;20472;-89
2024/03/14 21:55:06;;;;;;;;;;;;;;;5.57;100.00;99123.75;4972331;28;19922;-90
2024/03/14 21:57:31;;;;;;;;;;;;;;;5.58;100.00;99116.72;4971513;28;20259;-91
2024/03/14 21:59:57;;;;;;;;;;;;;;;5.52;100.00;99122.16;4971628;28;20277;-91
2024/03/14 22:02:23;;;;;;;;;;;;;;;5.56;100.00;99124.66;4972898;28;19929;-88
2024/03/14 22:04:48;;;;;;;;;;;;;;;5.59;100.00;99118.44;4971421;28;19937;-89
2024/03/14 22:07:14;;;;;;;;;;;;;;;5.63;100.00;99115.66;4972794;28;19918;-89
2024/03/14 22:09:40;;;;;;;;;;;;;;;5.61;100.00;99122.72;4971695;28;19954;-88
2024/03/14 22:12:05;;;;;;;;;;;;;;;5.63;100.00;99125.31;4972042;28;19950;-90